Latest Coastal Weather Observations for St Helens

IDT60701

Issued at 8:22 pm EST Friday 19 July 2019 (issued every 10 minutes, with the page automatically refreshed every 10 minutes)

About coastal observations | Map of coastal stations | Coastal observations for TAS | Marine services | Other Formats
Station Details ID: 092120 Name: ST HELENS AERODROME Lat: -41.34 Lon: 148.28 Height: 48.0 m
Data from the previous 72 hours. | See also: Recent months at St Helens
Date/Time
EST
Wind Sea
Height
m
Swell Vis
km
Cloud Weather Temp
°C
Press
hPa
Rain since
9am
mm
Dir  Spd
kts
Gust
kts
Height
m
Period
s
Dir
19/08:00pm WNW 4 7 - - - - 10 - - 8.3 1016.8 0.0
19/07:30pm WNW 5 7 - - - - 10 - - 8.6 1016.4 0.0
19/07:00pm NNW 5 7 - - - - 10 - - 9.2 1016.4 0.0
19/06:30pm NW 6 8 - - - - 10 - - 9.7 1016.1 0.0
19/06:00pm NW 6 9 - - - - 10 - - 10.3 1015.6 0.0
19/05:30pm NW 6 9 - - - - 10 - - 10.9 1015.2 0.0
19/05:00pm W 6 10 - - - - 10 - - 11.7 1014.9 0.0
19/04:30pm W 7 12 - - - - 10 - - 12.7 1014.3 0.0
19/04:00pm WNW 7 12 - - - - 10 - - 13.5 1014.0 0.0
19/03:30pm W 7 14 - - - - 10 - - 13.9 1013.6 0.0
19/03:00pm W 7 13 - - - - 10 - - 14.1 1013.1 0.0
19/02:30pm WNW 7 11 - - - - 10 - - 14.5 1012.9 0.0
19/02:00pm NW 7 12 - - - - 10 - - 14.7 1012.7 0.0
19/01:30pm WNW 7 12 - - - - 10 - - 14.4 1012.6 0.0
19/01:00pm WNW 7 11 - - - - 10 - - 13.9 1012.4 0.0
19/12:30pm WNW 7 12 - - - - 10 - - 13.3 1012.8 0.0
19/12:00pm W 8 13 - - - - 10 - - 13.3 1012.4 0.0
19/11:30am WNW 6 11 - - - - 10 - - 12.9 1012.7 0.0
19/11:00am W 6 12 - - - - 10 - - 12.2 1013.1 0.0
19/10:30am NW 6 9 - - - - 10 - - 11.6 1013.1 0.0
19/10:00am NW 6 9 - - - - 10 - - 10.8 1013.2 0.0
19/09:30am NW 4 8 - - - - 10 - - 9.6 1012.8 0.0
19/09:00am N 9 13 - - - - 15 Mostly clear Haze 9.0 1012.6 0.0
19/08:30am NW 5 7 - - - - 10 - - 7.7 1012.5 0.0
19/08:00am WNW 3 6 - - - - 10 - - 6.7 1012.2 0.0
19/07:30am NNW 5 7 - - - - 10 - - 7.2 1011.9 0.0
19/07:00am WSW 5 7 - - - - 10 - - 7.9 1011.0 0.0
19/06:30am WSW 6 11 - - - - 10 - - 7.8 1010.2 0.0
19/06:00am W 4 7 - - - - 10 - - 6.9 1009.9 0.0
19/05:30am W 5 8 - - - - 10 - - 7.1 1009.4 0.0
19/05:00am WNW 5 6 - - - - 10 - - 7.6 1009.0 0.0
19/04:30am W 4 7 - - - - 10 - - 8.4 1008.2 0.0
19/04:00am WSW 2 4 - - - - 10 Partly cloudy - 9.4 1007.7 0.0
19/03:30am SW 3 4 - - - - 10 Partly cloudy - 9.8 1007.2 0.0
19/03:00am WSW 2 5 - - - - 10 Partly cloudy - 9.9 1006.4 0.0
19/02:30am WNW 5 7 - - - - 10 Partly cloudy - 10.8 1005.7 0.0
19/02:00am W 6 10 - - - - 10 - - 11.0 1004.6 0.0
19/01:30am W 9 14 - - - - 10 - - 11.5 1003.5 0.0
19/01:00am W 10 16 - - - - 10 - - 11.8 1002.8 0.0
19/12:30am WNW 12 27 - - - - 10 Partly cloudy - 11.4 1002.5 0.0
19/12:22am NW 15 27 - - - - 10 Partly cloudy - 11.5 1002.5 0.0
19/12:00am NW 13 20 - - - - 10 Cloudy - 11.4 1002.9 0.0
 
Date/Time
EST
Wind Sea
Height
m
Swell Vis
km
Cloud Weather Temp
°C
Press
hPa
Rain since
9am
mm
Dir  Spd
kts
Gust
kts
Height
m
Period
s
Dir
18/11:30pm NW 10 17 - - - - 10 Partly cloudy - 11.2 1003.6 0.0
18/11:00pm NW 9 15 - - - - 10 Partly cloudy - 10.7 1004.3 0.0
18/10:30pm NNW 9 14 - - - - 10 Partly cloudy - 10.5 1005.0 0.0
18/10:00pm NNW 9 13 - - - - 10 Partly cloudy - 10.8 1005.6 0.0
18/09:30pm NW 9 15 - - - - 10 Partly cloudy - 10.6 1006.3 0.0
18/09:00pm NW 13 19 - - - - 10 Cloudy - 10.2 1006.4 0.0
18/08:30pm NW 9 15 - - - - 10 Partly cloudy - 10.3 1007.0 0.0
18/08:00pm WNW 9 18 - - - - 10 - - 10.8 1007.3 0.0
18/07:30pm WNW 12 17 - - - - 10 - - 10.7 1007.1 0.0
18/07:00pm WNW 8 15 - - - - 10 - - 10.6 1007.8 0.0
18/06:30pm WNW 11 16 - - - - 10 - - 10.6 1007.9 0.0
18/06:00pm NW 6 9 - - - - 10 - - 10.3 1007.9 0.0
18/05:30pm WNW 8 14 - - - - 10 - - 10.4 1008.2 0.0
18/05:00pm W 8 13 - - - - 10 - - 10.3 1008.3 0.0
18/04:30pm W 9 18 - - - - 10 - - 10.6 1008.4 0.0
18/04:00pm W 9 18 - - - - 10 - - 10.6 1008.1 0.0
18/03:30pm WNW 10 15 - - - - 10 - - 10.8 1008.3 0.0
18/03:00pm WNW 9 16 - - - - 10 - - 11.4 1008.3 0.0
18/02:30pm WNW 8 15 - - - - 10 - - 12.0 1008.6 0.0
18/02:00pm W 7 12 - - - - 10 - - 12.7 1008.7 0.0
18/01:30pm W 6 9 - - - - 10 - - 13.3 1008.8 0.0
18/01:00pm NW 7 9 - - - - 10 - - 13.6 1009.3 0.0
18/12:30pm WNW 4 8 - - - - 10 - - 12.6 1009.8 0.0
18/12:00pm N 4 6 - - - - 10 - - 11.9 1009.9 0.0
18/11:30am WNW 4 7 - - - - 10 - - 11.3 1010.9 0.0
18/11:00am WNW 3 5 - - - - 10 - - 10.0 1011.5 0.0
18/10:30am WNW 6 10 - - - - 10 - - 8.8 1011.9 0.0
18/10:00am WNW 5 9 - - - - 10 - - 8.3 1011.5 0.0
18/09:30am WNW 4 7 - - - - 10 - - 7.5 1011.1 0.0
18/09:00am NW 4 7 - - - - 30 Partly cloudy Fine 6.6 1010.9 0.0
18/08:30am NNW 5 8 - - - - 10 - - 5.6 1010.5 0.0
18/08:00am WNW 6 7 - - - - 10 - - 4.6 1010.0 0.0
18/07:30am NW 5 8 - - - - 10 - - 5.0 1009.4 0.0
18/07:00am NE 4 7 - - - - 10 - - 4.9 1008.7 0.0
18/06:30am W 3 5 - - - - 10 Partly cloudy - 5.5 1008.5 0.0
18/06:00am N 5 6 - - - - 10 - - 5.9 1007.7 0.0
18/05:30am NW 4 5 - - - - 10 - - 7.1 1006.9 0.0
18/05:00am NE 5 10 - - - - 10 - - 8.7 1006.8 0.0
18/04:30am SW 9 19 - - - - 10 - - 8.7 1005.9 0.0
18/04:00am SW 11 23 - - - - 10 - - 8.7 1005.5 0.0
18/03:30am SSW 14 29 - - - - 10 - - 8.7 1005.0 0.0
18/03:23am SW 15 26 - - - - 10 - - 8.7 1005.0 0.0
18/03:00am SSW 11 19 - - - - 10 - - 8.7 1005.1 0.0
18/02:30am SW 17 30 - - - - 10 - - 8.7 1004.6 0.0
18/02:11am SW 16 31 - - - - 10 - - 8.7 1004.4 0.0
18/02:00am SSW 8 13 - - - - 10 - - 8.3 1004.3 0.0
18/01:30am SW 11 17 - - - - 10 - - 8.4 1004.0 0.0
18/01:00am SW 9 19 - - - - 10 - - 8.7 1003.6 0.0
18/12:30am SW 8 14 - - - - 10 - - 9.0 1002.7 0.0
18/12:00am SSW 10 21 - - - - 10 - - 9.1 1002.5 0.0
 
Date/Time
EST
Wind Sea
Height
m
Swell Vis
km
Cloud Weather Temp
°C
Press
hPa
Rain since
9am
mm
Dir  Spd
kts
Gust
kts
Height
m
Period
s
Dir
17/11:34pm WSW 15 26 - - - - 10 - - 9.4 1001.5 0.0
17/11:30pm SW 14 26 - - - - 10 - - 9.2 1001.6 0.0
17/11:07pm SW 15 26 - - - - 10 - - 9.6 1001.1 0.0
17/11:00pm SW 13 25 - - - - 10 - - 9.5 1001.2 0.0
17/10:30pm SW 12 20 - - - - 10 - - 9.4 1001.5 0.0
17/10:00pm WSW 11 23 - - - - 10 - - 9.6 1001.5 0.0
17/09:30pm WSW 11 18 - - - - 10 - - 9.7 1001.6 0.0
17/09:00pm WSW 10 16 - - - - 10 - - 9.9 1001.6 0.0
17/08:30pm WSW 10 21 - - - - 10 - - 10.1 1001.6 0.0
17/08:00pm WSW 9 16 - - - - 10 - - 9.9 1001.5 0.0
17/07:30pm W 9 15 - - - - 10 - - 10.0 1001.3 0.0
17/07:00pm WSW 6 9 - - - - 10 - - 9.8 1001.1 0.0
17/06:30pm SW 7 12 - - - - 10 - - 10.6 1000.6 0.0
17/06:00pm WSW 8 15 - - - - 10 - - 10.8 1000.0 0.0
17/05:30pm W 9 13 - - - - 10 Partly cloudy - 11.1 999.4 0.0
17/05:00pm W 8 12 - - - - 10 - - 11.4 999.2 0.0
17/04:30pm WSW 7 13 - - - - 10 Partly cloudy - 12.0 999.1 0.0
17/04:00pm WNW 8 14 - - - - 10 - - 12.1 998.4 0.0
17/03:30pm W 12 21 - - - - 10 - - 12.7 998.4 0.0
17/03:00pm W 11 26 - - - - 10 Partly cloudy - 13.1 998.5 0.0
17/02:37pm W 15 25 - - - - 10 Partly cloudy - 12.7 998.8 0.0
17/02:30pm W 13 21 - - - - 10 Partly cloudy - 12.5 998.9 0.0
17/02:00pm WSW 13 25 - - - - 10 Partly cloudy - 12.8 999.3 0.0
17/01:30pm W 15 32 - - - - 10 Partly cloudy - 12.7 999.4 0.0
17/01:00pm W 15 28 - - - - 10 Partly cloudy - 13.5 1000.0 0.0
17/12:34pm WNW 15 26 - - - - 10 Partly cloudy - 13.3 1001.0 0.0
17/12:30pm WNW 13 26 - - - - 10 Partly cloudy - 13.0 1001.1 0.0
17/12:00pm W 11 19 - - - - 10 Cloudy - 12.7 1002.5 0.0
17/11:30am WNW 13 28 - - - - 10 Partly cloudy - 12.5 1003.4 0.0
17/11:00am WNW 13 22 - - - - 10 Partly cloudy - 12.1 1004.0 0.0
17/10:30am NW 11 17 - - - - 10 Partly cloudy - 11.9 1004.7 0.0
17/10:05am NW 15 25 - - - - 10 Partly cloudy - 11.6 1005.3 0.0
17/10:00am NW 17 25 - - - - 10 Partly cloudy - 11.7 1005.4 0.0
17/09:40am WNW 15 28 - - - - 10 - - 11.3 1005.3 0.0
17/09:30am WNW 13 23 - - - - 10 - - 11.2 1005.4 0.0
17/09:00am W 13 23 - - - - 25 Mostly cloudy Distant precip. 11.1 1005.4 0.0
17/08:30am W 8 16 - - - - 10 - - 10.9 1006.2 0.0
17/08:00am WNW 9 16 - - - - 10 - - 10.8 1006.5 0.0
17/07:30am WNW 6 9 - - - - 10 - - 10.4 1007.0 0.0
17/07:00am NW 6 8 - - - - 10 - - 10.3 1007.3 0.0
17/06:30am NNW 5 8 - - - - 10 - - 10.4 1007.5 0.0
17/06:00am NNW 7 9 - - - - 10 - - 10.8 1007.2 0.0
17/05:30am WNW 8 12 - - - - 10 - - 11.0 1007.3 0.0
17/05:00am W 8 13 - - - - 10 - - 11.3 1007.6 0.0
17/04:30am W 9 15 - - - - 10 - - 11.5 1007.6 0.0
17/04:00am W 9 16 - - - - 10 - - 11.3 1007.7 0.0
17/03:30am W 9 18 - - - - 10 - - 11.5 1008.2 0.0
17/03:00am WNW 6 9 - - - - 10 - - 11.1 1009.1 0.0
17/02:30am WNW 6 9 - - - - 10 - - 11.2 1009.3 0.0
17/02:00am WNW 7 10 - - - - 10 - - 11.1 1009.9 0.0
17/01:30am WNW 6 9 - - - - 10 - - 10.9 1009.8 0.0
17/01:00am WNW 5 8 - - - - 10 - - 11.0 1010.1 0.0
17/12:30am WNW 7 9 - - - - 10 - - 11.0 1010.6 0.0
17/12:00am NW 7 9 - - - - 10 - - 11.1 1010.7 0.0
 
Date/Time
EST
Wind Sea
Height
m
Swell Vis
km
Cloud Weather Temp
°C
Press
hPa
Rain since
9am
mm
Dir  Spd
kts
Gust
kts
Height
m
Period
s
Dir
16/11:30pm WNW 6 8 - - - - 10 - - 10.9 1010.9 0.0
16/11:00pm NW 6 9 - - - - 10 - - 11.4 1011.0 0.0
16/10:30pm WSW 5 9 - - - - 10 - - 11.6 1011.3 0.0
16/10:00pm WSW 6 12 - - - - 10 - - 11.2 1011.5 0.0
16/09:30pm WSW 6 10 - - - - 10 - - 11.1 1011.3 0.0
16/09:00pm WSW 7 15 - - - - 10 - - 10.7 1011.6 0.0
16/08:30pm WNW 6 11 - - - - 10 - - 10.0 1012.0 0.0

Other formats

Comma delimited format used in spreadsheet applications
http://www.bom.gov.au/fwo/IDT60701/IDT60701.95981.axf

JavaScript Object Notation format (JSON) in row-major order
http://www.bom.gov.au/fwo/IDT60701/IDT60701.95981.json

Data quality

Most of these data are generated automatically and are frequently updated. Quality checks on data are not normally performed. It is possible for incorrect values to appear. Refer to information at About Latest Weather Observations and please check the disclaimer before using these data.